Time;durP1;ratioP1;P1;durP2;ratioP2;P2;SDS_P1;SDS_P2;PMS_P1;PMS_P2;Temp;Humidity;BMP_temperature;BMP_pressure;BME280_temperature;BME280_humidity;BME280_pressure;Samples;Min_cycle;Max_cycle;Signal;HPM_P1;HPM_P2
2022/01/17 00:01:15;;;;;;;0.20;0.20;;;;;;;;;;1866917;75;26858;-28
2022/01/17 00:03:43;;;;;;;0.30;0.30;;;;;;;;;;1862859;76;26725;-28
2022/01/17 00:06:11;;;;;;;0.20;0.20;;;;;;;;;;1860839;75;26241;-28
2022/01/17 00:08:42;;;;;;;0.93;0.30;;;;;;;;;;1856692;75;26798;-30
2022/01/17 00:11:07;;;;;;;0.15;0.15;;;;;;;;;;1860694;75;26789;-29
2022/01/17 00:13:35;;;;;;;0.33;0.33;;;;;;;;;;1859417;75;26307;-29
2022/01/17 00:16:19;;;;;;;0.25;0.25;;;;;;;;;;1863096;75;26327;-31
2022/01/17 00:21:17;;;;;;;0.20;0.20;;;;;;;;;;1859214;75;26299;-26
2022/01/17 00:23:44;;;;;;;0.30;0.30;;;;;;;;;;1853040;75;26271;-29
2022/01/17 00:26:11;;;;;;;0.20;0.20;;;;;;;;;;1860792;75;26679;-27
2022/01/17 00:28:39;;;;;;;0.23;0.23;;;;;;;;;;1863153;75;26498;-29
2022/01/17 00:31:06;;;;;;;0.15;0.15;;;;;;;;;;1860823;75;26251;-27
2022/01/17 00:33:34;;;;;;;0.17;0.17;;;;;;;;;;1863253;75;26669;-29
2022/01/17 00:36:01;;;;;;;0.10;0.10;;;;;;;;;;1860899;75;26267;-27
2022/01/17 00:38:29;;;;;;;0.20;0.20;;;;;;;;;;1864117;75;26725;-29
2022/01/17 00:40:56;;;;;;;0.10;0.10;;;;;;;;;;1863156;75;26838;-28
2022/01/17 00:43:23;;;;;;;0.20;0.20;;;;;;;;;;1856130;75;26282;-27
2022/01/17 00:45:50;;;;;;;0.20;0.20;;;;;;;;;;1850572;76;26262;-30
2022/01/17 00:48:18;;;;;;;0.10;0.10;;;;;;;;;;1846162;75;26241;-28
2022/01/17 00:50:47;;;;;;;0.20;0.20;;;;;;;;;;1863719;75;26218;-29
2022/01/17 00:53:14;;;;;;;0.08;0.08;;;;;;;;;;1859320;76;26342;-27
2022/01/17 00:55:41;;;;;;;0.20;0.20;;;;;;;;;;1859561;75;26397;-34
2022/01/17 00:58:09;;;;;;;0.17;0.17;;;;;;;;;;1855759;75;26614;-28
2022/01/17 01:00:37;;;;;;;0.13;0.13;;;;;;;;;;1825372;77;26309;-29
2022/01/17 01:03:05;;;;;;;0.10;0.10;;;;;;;;;;1833532;77;26276;-29
2022/01/17 01:05:32;;;;;;;2.85;0.30;;;;;;;;;;1838690;77;26271;-33
2022/01/17 01:07:59;;;;;;;0.62;0.20;;;;;;;;;;1833674;77;26277;-30
2022/01/17 01:10:27;;;;;;;1.12;0.10;;;;;;;;;;1829512;77;26258;-30
2022/01/17 01:12:54;;;;;;;0.42;0.33;;;;;;;;;;1832508;77;26365;-30
2022/01/17 01:15:47;;;;;;;0.20;0.20;;;;;;;;;;1843797;77;26351;-28
2022/01/17 01:17:56;;;;;;;0.20;0.20;;;;;;;;;;1826439;77;26315;-30
2022/01/17 01:28:40;;;;;;;0.55;0.10;;;;;;;;;;1830534;77;26317;-29
2022/01/17 01:31:14;;;;;;;1.27;0.10;;;;;;;;;;1836293;77;26253;-31
2022/01/17 01:33:40;;;;;;;0.20;0.20;;;;;;;;;;1836769;77;26213;-32
2022/01/17 01:36:12;;;;;;;0.10;0.10;;;;;;;;;;1844386;77;26514;-31
2022/01/17 01:38:36;;;;;;;0.10;0.10;;;;;;;;;;1837522;77;26291;-33
2022/01/17 01:41:04;;;;;;;0.10;0.10;;;;;;;;;;1840057;77;26939;-30
2022/01/17 01:43:31;;;;;;;0.10;0.10;;;;;;;;;;1829781;77;26707;-32
2022/01/17 01:46:01;;;;;;;0.20;0.20;;;;;;;;;;1845914;77;26326;-30
2022/01/17 01:48:29;;;;;;;0.10;0.10;;;;;;;;;;1823278;77;26768;-31
2022/01/17 01:50:56;;;;;;;0.10;0.10;;;;;;;;;;1823313;77;26738;-31
2022/01/17 01:53:25;;;;;;;0.10;0.10;;;;;;;;;;1828350;77;26186;-29
2022/01/17 01:55:54;;;;;;;0.00;0.00;;;;;;;;;;1833515;77;26323;-31
2022/01/17 01:58:22;;;;;;;0.00;0.00;;;;;;;;;;1836646;76;26304;-33
2022/01/17 02:00:50;;;;;;;0.23;0.23;;;;;;;;;;1855072;75;26271;-30
2022/01/17 02:03:17;;;;;;;0.10;0.10;;;;;;;;;;1862790;75;26276;-30
2022/01/17 02:05:45;;;;;;;0.10;0.10;;;;;;;;;;1864185;75;26346;-30
2022/01/17 02:08:13;;;;;;;0.10;0.10;;;;;;;;;;1862687;75;26264;-33
2022/01/17 02:10:40;;;;;;;0.10;0.10;;;;;;;;;;1850358;75;26241;-31
2022/01/17 02:13:07;;;;;;;0.08;0.08;;;;;;;;;;1856930;75;26336;-30
2022/01/17 02:15:37;;;;;;;0.17;0.17;;;;;;;;;;1860658;75;26299;-31
2022/01/17 02:18:07;;;;;;;0.10;0.10;;;;;;;;;;1851006;75;26363;-34
2022/01/17 02:23:09;;;;;;;0.15;0.15;;;;;;;;;;1860176;75;26990;-30
2022/01/17 02:25:37;;;;;;;0.20;0.20;;;;;;;;;;1860796;75;26237;-31
2022/01/17 02:28:05;;;;;;;0.10;0.10;;;;;;;;;;1858680;75;27328;-30
2022/01/17 02:30:32;;;;;;;0.00;0.00;;;;;;;;;;1859124;75;26202;-30
2022/01/17 02:33:01;;;;;;;0.10;0.10;;;;;;;;;;1861294;75;26358;-32
2022/01/17 02:35:28;;;;;;;0.10;0.10;;;;;;;;;;1862009;75;26277;-33
2022/01/17 02:37:56;;;;;;;0.20;0.20;;;;;;;;;;1857329;75;25754;-32
2022/01/17 02:40:24;;;;;;;0.17;0.17;;;;;;;;;;1866112;75;26276;-31
2022/01/17 02:43:00;;;;;;;0.00;0.00;;;;;;;;;;1862838;75;26795;-33
2022/01/17 02:48:04;;;;;;;0.20;0.20;;;;;;;;;;1857596;75;26296;-31
2022/01/17 02:50:32;;;;;;;0.20;0.20;;;;;;;;;;1861451;75;26269;-33
2022/01/17 02:53:03;;;;;;;0.10;0.10;;;;;;;;;;1863481;75;26253;-31
2022/01/17 02:55:31;;;;;;;0.23;0.20;;;;;;;;;;1872003;75;26197;-31
2022/01/17 02:57:59;;;;;;;0.00;0.00;;;;;;;;;;1859285;75;26256;-30
2022/01/17 03:00:26;;;;;;;0.10;0.10;;;;;;;;;;1844658;76;26245;-31
2022/01/17 03:02:54;;;;;;;1.17;0.15;;;;;;;;;;1836604;76;26286;-31
2022/01/17 03:05:21;;;;;;;0.20;0.20;;;;;;;;;;1849657;76;26238;-30
2022/01/17 03:07:50;;;;;;;0.10;0.10;;;;;;;;;;1852080;76;26244;-31
2022/01/17 03:12:49;;;;;;;0.30;0.30;;;;;;;;;;1845653;76;26327;-30
2022/01/17 03:15:17;;;;;;;0.30;0.30;;;;;;;;;;1850237;76;26304;-30
2022/01/17 03:17:44;;;;;;;0.10;0.10;;;;;;;;;;1846559;76;26249;-31
2022/01/17 03:20:12;;;;;;;0.33;0.33;;;;;;;;;;1848586;76;26555;-30
2022/01/17 03:22:39;;;;;;;0.10;0.10;;;;;;;;;;1847609;76;26331;-30
2022/01/17 03:25:07;;;;;;;0.20;0.20;;;;;;;;;;1844695;76;26697;-32
2022/01/17 03:27:34;;;;;;;0.30;0.30;;;;;;;;;;1844710;76;26268;-29
2022/01/17 03:30:03;;;;;;;0.20;0.20;;;;;;;;;;1847853;76;26285;-31
2022/01/17 03:32:30;;;;;;;0.13;0.13;;;;;;;;;;1836028;76;26317;-30
2022/01/17 03:34:58;;;;;;;0.20;0.20;;;;;;;;;;1847448;76;26297;-31
2022/01/17 03:37:25;;;;;;;0.10;0.10;;;;;;;;;;1849969;76;26737;-31
2022/01/17 03:39:52;;;;;;;0.20;0.20;;;;;;;;;;1850017;76;26747;-31
2022/01/17 03:42:19;;;;;;;0.20;0.20;;;;;;;;;;1849715;76;26744;-32
2022/01/17 03:44:47;;;;;;;0.30;0.30;;;;;;;;;;1835463;76;26292;-32
2022/01/17 03:47:14;;;;;;;0.33;0.33;;;;;;;;;;1847690;76;26347;-33
2022/01/17 03:49:42;;;;;;;0.35;0.20;;;;;;;;;;1844342;76;26762;-33
2022/01/17 03:52:10;;;;;;;0.10;0.10;;;;;;;;;;1848998;76;26265;-33
2022/01/17 03:54:37;;;;;;;1.75;0.20;;;;;;;;;;1843669;76;27685;-30
2022/01/17 03:57:04;;;;;;;0.10;0.10;;;;;;;;;;1851856;76;26266;-30
2022/01/17 03:59:31;;;;;;;0.20;0.20;;;;;;;;;;1856410;75;26375;-31
2022/01/17 04:01:59;;;;;;;0.30;0.30;;;;;;;;;;1862783;75;26350;-33
2022/01/17 04:04:26;;;;;;;0.30;0.30;;;;;;;;;;1859955;75;26634;-31
2022/01/17 04:06:53;;;;;;;0.23;0.23;;;;;;;;;;1857028;75;26751;-33
2022/01/17 04:09:20;;;;;;;0.20;0.20;;;;;;;;;;1861836;75;26321;-31
2022/01/17 04:11:48;;;;;;;0.28;0.20;;;;;;;;;;1855306;75;26301;-32
2022/01/17 04:14:17;;;;;;;0.25;0.25;;;;;;;;;;1865009;75;26408;-30
2022/01/17 04:16:44;;;;;;;0.20;0.20;;;;;;;;;;1859245;75;26234;-30
2022/01/17 04:19:12;;;;;;;0.20;0.20;;;;;;;;;;1860495;75;26743;-31
2022/01/17 04:21:39;;;;;;;0.40;0.30;;;;;;;;;;1858432;75;26280;-31
2022/01/17 04:24:07;;;;;;;0.28;0.28;;;;;;;;;;1876801;75;26262;-32
2022/01/17 04:26:34;;;;;;;0.30;0.23;;;;;;;;;;1849376;76;26234;-30
2022/01/17 04:29:01;;;;;;;0.20;0.20;;;;;;;;;;1861415;75;26190;-32
2022/01/17 04:31:29;;;;;;;0.20;0.20;;;;;;;;;;1867044;75;26296;-29
2022/01/17 04:33:56;;;;;;;0.20;0.20;;;;;;;;;;1872846;75;26200;-31
2022/01/17 04:36:23;;;;;;;0.20;0.20;;;;;;;;;;1857210;75;26256;-34
2022/01/17 04:38:51;;;;;;;0.23;0.23;;;;;;;;;;1864296;75;26261;-30
2022/01/17 04:41:21;;;;;;;0.17;0.17;;;;;;;;;;1861991;75;26280;-31
2022/01/17 04:46:19;;;;;;;0.90;0.15;;;;;;;;;;1865487;75;26398;-32
2022/01/17 04:48:46;;;;;;;1.05;0.20;;;;;;;;;;1862328;75;26654;-30
2022/01/17 04:51:13;;;;;;;0.20;0.20;;;;;;;;;;1860903;75;26306;-30
2022/01/17 04:53:42;;;;;;;0.30;0.30;;;;;;;;;;1857613;75;26182;-31
2022/01/17 04:56:10;;;;;;;0.55;0.30;;;;;;;;;;1873144;75;27358;-33
2022/01/17 04:58:37;;;;;;;0.20;0.20;;;;;;;;;;1861020;76;26221;-29
2022/01/17 05:01:04;;;;;;;0.20;0.20;;;;;;;;;;1865246;75;26276;-32
2022/01/17 05:03:31;;;;;;;0.37;0.37;;;;;;;;;;1863356;75;26269;-30
2022/01/17 05:05:59;;;;;;;0.30;0.30;;;;;;;;;;1859833;76;26303;-31
2022/01/17 05:08:26;;;;;;;0.45;0.20;;;;;;;;;;1866096;75;26298;-30
2022/01/17 05:10:55;;;;;;;0.55;0.30;;;;;;;;;;1861312;75;26244;-30
2022/01/17 05:13:31;;;;;;;0.40;0.40;;;;;;;;;;1863891;75;26323;-32
2022/01/17 05:15:54;;;;;;;0.20;0.20;;;;;;;;;;1860900;75;26688;-33
2022/01/17 05:21:01;;;;;;;0.40;0.40;;;;;;;;;;1860087;75;26325;-30
2022/01/17 05:23:28;;;;;;;0.35;0.20;;;;;;;;;;1862756;75;26269;-33
2022/01/17 05:25:55;;;;;;;0.28;0.28;;;;;;;;;;1862265;76;26271;-31
2022/01/17 05:28:23;;;;;;;0.30;0.30;;;;;;;;;;1863913;75;26537;-31
2022/01/17 05:30:50;;;;;;;0.50;0.20;;;;;;;;;;1862979;75;26325;-31
2022/01/17 05:33:17;;;;;;;0.37;0.37;;;;;;;;;;1855844;75;26268;-29
2022/01/17 05:35:45;;;;;;;0.20;0.20;;;;;;;;;;1859622;75;26256;-31
2022/01/17 05:38:13;;;;;;;0.10;0.10;;;;;;;;;;1862787;75;26264;-30
2022/01/17 05:40:40;;;;;;;0.20;0.20;;;;;;;;;;1837951;75;26802;-33
2022/01/17 05:43:08;;;;;;;0.33;0.33;;;;;;;;;;1861585;75;26272;-31
2022/01/17 05:45:35;;;;;;;0.33;0.30;;;;;;;;;;1862503;75;26260;-31
2022/01/17 05:48:02;;;;;;;0.40;0.10;;;;;;;;;;1863671;76;26743;-31
2022/01/17 05:50:30;;;;;;;0.23;0.23;;;;;;;;;;1861860;75;26336;-31
2022/01/17 05:52:57;;;;;;;0.30;0.30;;;;;;;;;;1860404;75;26338;-31
2022/01/17 05:55:24;;;;;;;0.20;0.20;;;;;;;;;;1859281;75;26354;-31
2022/01/17 05:57:52;;;;;;;0.20;0.20;;;;;;;;;;1867300;75;25365;-31
2022/01/17 06:00:19;;;;;;;0.20;0.20;;;;;;;;;;1862876;75;26306;-32
2022/01/17 06:02:48;;;;;;;0.28;0.17;;;;;;;;;;1837454;77;26289;-31
2022/01/17 06:05:15;;;;;;;0.23;0.23;;;;;;;;;;1844880;77;26761;-30
2022/01/17 06:07:42;;;;;;;0.40;0.40;;;;;;;;;;1835164;77;26789;-30
2022/01/17 06:10:09;;;;;;;0.30;0.30;;;;;;;;;;1842076;77;26276;-33
2022/01/17 06:12:37;;;;;;;0.20;0.20;;;;;;;;;;1830071;77;26677;-31
2022/01/17 06:15:05;;;;;;;0.30;0.30;;;;;;;;;;1826852;77;26652;-32
2022/01/17 06:17:32;;;;;;;0.20;0.20;;;;;;;;;;1829619;77;26789;-30
2022/01/17 06:20:00;;;;;;;0.28;0.20;;;;;;;;;;1815764;77;26725;-32
2022/01/17 06:22:27;;;;;;;0.23;0.23;;;;;;;;;;1820964;77;26326;-30
2022/01/17 06:24:54;;;;;;;0.28;0.28;;;;;;;;;;1833352;77;26258;-31
2022/01/17 06:27:22;;;;;;;0.20;0.20;;;;;;;;;;1826726;77;26270;-32
2022/01/17 06:29:51;;;;;;;1.72;0.40;;;;;;;;;;1830723;77;26499;-30
2022/01/17 06:32:18;;;;;;;0.98;0.30;;;;;;;;;;1832349;77;26294;-33
2022/01/17 06:34:46;;;;;;;4.60;0.60;;;;;;;;;;1835731;77;26309;-33
2022/01/17 06:37:14;;;;;;;0.40;0.40;;;;;;;;;;1844958;77;26303;-29
2022/01/17 06:39:42;;;;;;;5.28;0.50;;;;;;;;;;1825925;77;26292;-31
2022/01/17 06:42:09;;;;;;;2.85;0.40;;;;;;;;;;1844822;77;26277;-31
2022/01/17 06:44:36;;;;;;;4.72;0.50;;;;;;;;;;1828286;77;26269;-31
2022/01/17 06:47:04;;;;;;;0.30;0.30;;;;;;;;;;1824585;77;26287;-30
2022/01/17 06:49:32;;;;;;;0.90;0.23;;;;;;;;;;1827797;77;26652;-30
2022/01/17 06:51:59;;;;;;;0.45;0.30;;;;;;;;;;1829422;77;26269;-31
2022/01/17 06:54:26;;;;;;;3.95;0.35;;;;;;;;;;1840879;77;26318;-30
2022/01/17 06:56:54;;;;;;;0.20;0.20;;;;;;;;;;1839968;77;26334;-33
2022/01/17 06:59:21;;;;;;;2.50;0.40;;;;;;;;;;1831220;77;26232;-33
2022/01/17 07:01:48;;;;;;;1.25;0.23;;;;;;;;;;1850089;75;26402;-31
2022/01/17 07:04:16;;;;;;;0.42;0.42;;;;;;;;;;1856092;75;26736;-30
2022/01/17 07:06:43;;;;;;;0.28;0.28;;;;;;;;;;1859348;75;26334;-30
2022/01/17 07:09:14;;;;;;;0.30;0.25;;;;;;;;;;1857653;75;26257;-31
2022/01/17 07:11:39;;;;;;;0.20;0.20;;;;;;;;;;1859482;75;26581;-30
2022/01/17 07:14:08;;;;;;;0.20;0.20;;;;;;;;;;1859108;75;26274;-30
2022/01/17 07:16:37;;;;;;;1.25;0.30;;;;;;;;;;1863248;75;26264;-33
2022/01/17 07:19:04;;;;;;;0.20;0.20;;;;;;;;;;1856918;75;26264;-30
2022/01/17 07:21:32;;;;;;;0.28;0.28;;;;;;;;;;1859656;75;26636;-31
2022/01/17 07:24:01;;;;;;;0.23;0.23;;;;;;;;;;1858300;75;26418;-31
2022/01/17 07:26:29;;;;;;;0.50;0.20;;;;;;;;;;1856535;75;26345;-31
2022/01/17 07:28:56;;;;;;;0.15;0.15;;;;;;;;;;1861942;75;26205;-32
2022/01/17 07:31:23;;;;;;;0.30;0.30;;;;;;;;;;1863289;75;26335;-30
2022/01/17 07:33:50;;;;;;;1.37;0.15;;;;;;;;;;1857894;76;26316;-30
2022/01/17 07:36:20;;;;;;;0.10;0.10;;;;;;;;;;1861232;75;26283;-30
2022/01/17 07:38:47;;;;;;;1.15;0.42;;;;;;;;;;1860405;75;26842;-30
2022/01/17 07:41:14;;;;;;;0.20;0.20;;;;;;;;;;1868946;75;26261;-30
2022/01/17 07:43:42;;;;;;;0.98;0.30;;;;;;;;;;1858799;76;26296;-32
2022/01/17 07:49:10;;;;;;;0.37;0.33;;;;;;;;;;1852015;75;26373;-31
2022/01/17 07:51:40;;;;;;;1.35;0.40;;;;;;;;;;1861514;75;26269;-31
2022/01/17 07:54:10;;;;;;;0.70;0.37;;;;;;;;;;1860016;75;26341;-30
2022/01/17 07:56:37;;;;;;;0.30;0.30;;;;;;;;;;1862539;75;26969;-30
2022/01/17 07:59:07;;;;;;;0.20;0.20;;;;;;;;;;1866669;75;26273;-34
2022/01/17 08:01:35;;;;;;;0.50;0.20;;;;;;;;;;1848116;75;26900;-31
2022/01/17 08:04:03;;;;;;;0.10;0.10;;;;;;;;;;1852196;76;26274;-34
2022/01/17 08:06:30;;;;;;;5.90;1.17;;;;;;;;;;1844591;76;26795;-32
2022/01/17 08:08:58;;;;;;;1.82;0.40;;;;;;;;;;1847650;76;26718;-32
2022/01/17 08:11:25;;;;;;;4.90;0.40;;;;;;;;;;1849044;76;26910;-32
2022/01/17 08:13:52;;;;;;;5.05;0.37;;;;;;;;;;1845810;76;26339;-32
2022/01/17 08:16:20;;;;;;;1.95;0.30;;;;;;;;;;1841560;76;26256;-29
2022/01/17 08:18:47;;;;;;;0.37;0.23;;;;;;;;;;1843008;76;26240;-31
2022/01/17 08:21:15;;;;;;;0.17;0.17;;;;;;;;;;1846431;76;26272;-29
2022/01/17 08:23:42;;;;;;;1.75;0.28;;;;;;;;;;1850993;76;26394;-31
2022/01/17 08:26:09;;;;;;;1.47;0.40;;;;;;;;;;1846491;76;26818;-33
2022/01/17 08:28:38;;;;;;;0.85;0.30;;;;;;;;;;1840579;76;26257;-30
2022/01/17 08:31:05;;;;;;;1.80;0.30;;;;;;;;;;1843447;76;27356;-34
2022/01/17 08:33:32;;;;;;;1.40;0.25;;;;;;;;;;1831157;76;38948;-35
2022/01/17 08:36:00;;;;;;;0.23;0.10;;;;;;;;;;1842759;76;26276;-36
2022/01/17 08:38:29;;;;;;;0.40;0.40;;;;;;;;;;1847868;76;26218;-36
2022/01/17 08:40:57;;;;;;;0.55;0.30;;;;;;;;;;1840988;76;26791;-38
2022/01/17 08:43:25;;;;;;;0.50;0.28;;;;;;;;;;1845778;76;26503;-35
2022/01/17 08:45:53;;;;;;;0.28;0.20;;;;;;;;;;1842435;76;26285;-36
2022/01/17 08:48:21;;;;;;;0.40;0.40;;;;;;;;;;1848585;76;26288;-36
2022/01/17 08:50:50;;;;;;;0.42;0.30;;;;;;;;;;1843687;76;26199;-36
2022/01/17 08:53:18;;;;;;;0.28;0.28;;;;;;;;;;1848017;76;26740;-36
2022/01/17 08:55:46;;;;;;;0.20;0.20;;;;;;;;;;1840635;76;26335;-38
2022/01/17 08:58:14;;;;;;;0.05;0.05;;;;;;;;;;1842286;76;26787;-35
2022/01/17 09:00:41;;;;;;;1.42;0.40;;;;;;;;;;1839982;76;26268;-34
2022/01/17 09:03:10;;;;;;;0.30;0.30;;;;;;;;;;1844278;76;26281;-34
2022/01/17 09:05:37;;;;;;;0.20;0.20;;;;;;;;;;1844800;76;26710;-36
2022/01/17 09:08:05;;;;;;;0.10;0.10;;;;;;;;;;1850224;76;26272;-38
2022/01/17 09:10:32;;;;;;;0.20;0.20;;;;;;;;;;1845790;76;26280;-34
2022/01/17 09:13:00;;;;;;;1.45;0.25;;;;;;;;;;1840938;76;26320;-36
2022/01/17 09:15:27;;;;;;;0.20;0.20;;;;;;;;;;1845415;76;26282;-35
2022/01/17 09:17:54;;;;;;;0.13;0.10;;;;;;;;;;1844835;76;26737;-36
2022/01/17 09:20:21;;;;;;;0.20;0.20;;;;;;;;;;1849481;76;26676;-35
2022/01/17 09:22:49;;;;;;;0.20;0.20;;;;;;;;;;1842548;76;26864;-35
2022/01/17 09:25:16;;;;;;;0.20;0.20;;;;;;;;;;1850721;76;26308;-34
2022/01/17 09:27:43;;;;;;;0.20;0.20;;;;;;;;;;1842929;76;26218;-35
2022/01/17 09:30:12;;;;;;;0.10;0.10;;;;;;;;;;1848768;76;26301;-34
2022/01/17 09:32:41;;;;;;;0.20;0.20;;;;;;;;;;1844385;76;26339;-35
2022/01/17 09:35:09;;;;;;;0.20;0.20;;;;;;;;;;1845370;76;26803;-32
2022/01/17 09:37:36;;;;;;;0.10;0.10;;;;;;;;;;1844060;76;26281;-35
2022/01/17 09:40:06;;;;;;;0.20;0.20;;;;;;;;;;1847460;76;26330;-35
2022/01/17 09:42:37;;;;;;;0.65;0.40;;;;;;;;;;1842549;76;26652;-35
2022/01/17 09:45:06;;;;;;;0.10;0.10;;;;;;;;;;1843281;76;26285;-38
2022/01/17 09:47:34;;;;;;;0.17;0.17;;;;;;;;;;1848207;76;26261;-34
2022/01/17 09:50:02;;;;;;;0.13;0.13;;;;;;;;;;1842138;76;26273;-36
2022/01/17 09:52:36;;;;;;;0.10;0.10;;;;;;;;;;1842894;76;26364;-34
2022/01/17 09:55:08;;;;;;;0.30;0.30;;;;;;;;;;1840461;76;26760;-35
2022/01/17 09:57:37;;;;;;;0.10;0.10;;;;;;;;;;1843815;76;26300;-35
2022/01/17 10:00:05;;;;;;;0.17;0.10;;;;;;;;;;1840593;76;26327;-36
2022/01/17 10:02:32;;;;;;;0.20;0.20;;;;;;;;;;1844718;75;26483;-40
2022/01/17 10:05:02;;;;;;;0.35;0.20;;;;;;;;;;1868738;75;26837;-39
2022/01/17 10:07:48;;;;;;;0.50;0.10;;;;;;;;;;1857780;75;26232;-34
2022/01/17 10:10:15;;;;;;;0.10;0.10;;;;;;;;;;1853093;75;26693;-36
2022/01/17 10:12:42;;;;;;;0.20;0.20;;;;;;;;;;1857894;75;26249;-35
2022/01/17 10:15:15;;;;;;;0.03;0.03;;;;;;;;;;1857110;75;26273;-35
2022/01/17 10:17:42;;;;;;;2.47;0.20;;;;;;;;;;1857831;75;26276;-34
2022/01/17 10:20:13;;;;;;;0.30;0.10;;;;;;;;;;1857042;75;26729;-35
2022/01/17 10:23:16;;;;;;;0.17;0.17;;;;;;;;;;1857525;75;26848;-35
2022/01/17 10:28:46;;;;;;;0.10;0.10;;;;;;;;;;1858433;75;26354;-34
2022/01/17 10:31:08;;;;;;;0.30;0.30;;;;;;;;;;1853611;75;26316;-35
2022/01/17 10:36:03;;;;;;;0.20;0.20;;;;;;;;;;1855641;75;26727;-36
2022/01/17 10:38:30;;;;;;;0.10;0.10;;;;;;;;;;1831188;75;26331;-36
2022/01/17 10:40:59;;;;;;;0.20;0.20;;;;;;;;;;1860768;75;26240;-38
2022/01/17 10:43:33;;;;;;;0.20;0.20;;;;;;;;;;1860045;75;26304;-35
2022/01/17 10:45:57;;;;;;;1.35;0.20;;;;;;;;;;1852371;76;26366;-36
2022/01/17 10:48:35;;;;;;;0.20;0.20;;;;;;;;;;1849764;75;26559;-37
2022/01/17 10:51:06;;;;;;;0.10;0.10;;;;;;;;;;1858552;75;26276;-35
2022/01/17 10:53:34;;;;;;;0.20;0.20;;;;;;;;;;1859837;75;26205;-35
2022/01/17 10:56:07;;;;;;;0.20;0.10;;;;;;;;;;1875939;75;26727;-35
2022/01/17 10:58:32;;;;;;;0.20;0.20;;;;;;;;;;1861441;75;26320;-35
2022/01/17 11:01:01;;;;;;;0.30;0.30;;;;;;;;;;1860990;75;26719;-36
2022/01/17 11:03:30;;;;;;;0.20;0.20;;;;;;;;;;1838017;75;26885;-35
2022/01/17 11:05:58;;;;;;;0.10;0.10;;;;;;;;;;1831454;77;26276;-35
2022/01/17 11:08:26;;;;;;;0.72;0.20;;;;;;;;;;1844276;77;26302;-35
2022/01/17 11:10:57;;;;;;;0.20;0.20;;;;;;;;;;1840327;77;26208;-34
2022/01/17 11:13:26;;;;;;;0.20;0.20;;;;;;;;;;1823433;77;26288;-35
2022/01/17 11:15:55;;;;;;;0.20;0.20;;;;;;;;;;1831033;76;26274;-36
2022/01/17 11:18:26;;;;;;;0.17;0.17;;;;;;;;;;1831742;77;26316;-36
2022/01/17 11:20:54;;;;;;;0.20;0.20;;;;;;;;;;1834580;77;26700;-36
2022/01/17 11:23:22;;;;;;;0.80;0.57;;;;;;;;;;1834150;77;26876;-37
2022/01/17 11:25:56;;;;;;;0.60;0.23;;;;;;;;;;1836902;77;26272;-38
2022/01/17 11:28:24;;;;;;;0.35;0.20;;;;;;;;;;1829493;77;26837;-36
2022/01/17 11:30:53;;;;;;;0.08;0.08;;;;;;;;;;1830490;77;26288;-38
2022/01/17 11:33:21;;;;;;;0.20;0.20;;;;;;;;;;1830120;77;26296;-33
2022/01/17 11:35:52;;;;;;;0.20;0.20;;;;;;;;;;1822156;77;26266;-36
2022/01/17 11:38:19;;;;;;;0.13;0.13;;;;;;;;;;1830838;77;26375;-50
2022/01/17 11:40:47;;;;;;;1.45;0.20;;;;;;;;;;1838962;77;26300;-33
2022/01/17 11:43:19;;;;;;;0.10;0.10;;;;;;;;;;1842003;77;26279;-32
2022/01/17 11:45:47;;;;;;;0.10;0.10;;;;;;;;;;1814465;77;28718;-35
2022/01/17 11:48:21;;;;;;;0.17;0.17;;;;;;;;;;1831712;77;26332;-36
2022/01/17 11:50:51;;;;;;;0.25;0.25;;;;;;;;;;1834260;77;26256;-40
2022/01/17 11:53:20;;;;;;;0.13;0.13;;;;;;;;;;1822239;77;26786;-35
2022/01/17 11:55:48;;;;;;;0.10;0.10;;;;;;;;;;1831228;77;26710;-35
2022/01/17 11:58:24;;;;;;;0.10;0.10;;;;;;;;;;1838344;77;26353;-36
2022/01/17 12:01:02;;;;;;;0.10;0.10;;;;;;;;;;1833155;77;26290;-36
2022/01/17 12:03:34;;;;;;;0.40;0.20;;;;;;;;;;1850497;75;26309;-35
2022/01/17 12:06:03;;;;;;;0.10;0.10;;;;;;;;;;1862550;75;26272;-36
2022/01/17 12:08:31;;;;;;;0.20;0.20;;;;;;;;;;1845896;75;26791;-36
2022/01/17 12:11:03;;;;;;;0.20;0.20;;;;;;;;;;1863440;75;26269;-38
2022/01/17 12:13:40;;;;;;;0.28;0.28;;;;;;;;;;1863323;75;26675;-35
2022/01/17 12:16:14;;;;;;;0.33;0.33;;;;;;;;;;1862330;75;26318;-37
2022/01/17 12:18:38;;;;;;;0.30;0.30;;;;;;;;;;1861909;75;26271;-36
2022/01/17 12:21:19;;;;;;;0.10;0.10;;;;;;;;;;1858789;75;26280;-38
2022/01/17 12:23:47;;;;;;;0.10;0.10;;;;;;;;;;1865583;75;26256;-38
2022/01/17 12:26:28;;;;;;;0.20;0.20;;;;;;;;;;1875921;75;27550;-37
2022/01/17 12:28:56;;;;;;;0.00;0.00;;;;;;;;;;1861113;75;26279;-34
2022/01/17 12:31:42;;;;;;;0.20;0.20;;;;;;;;;;1859629;75;26268;-41
2022/01/17 12:34:16;;;;;;;0.13;0.13;;;;;;;;;;1864432;75;26325;-38
2022/01/17 12:36:46;;;;;;;0.17;0.17;;;;;;;;;;1882669;75;26706;-34
2022/01/17 12:39:14;;;;;;;0.00;0.00;;;;;;;;;;1860934;75;26325;-36
2022/01/17 12:41:42;;;;;;;0.10;0.10;;;;;;;;;;1857614;75;26253;-35
2022/01/17 12:44:14;;;;;;;0.28;0.28;;;;;;;;;;1859876;75;26295;-40
2022/01/17 12:46:42;;;;;;;0.30;0.30;;;;;;;;;;1797005;78;26259;-36
2022/01/17 12:49:10;;;;;;;0.13;0.13;;;;;;;;;;1798644;78;26268;-35
2022/01/17 12:51:42;;;;;;;0.13;0.13;;;;;;;;;;1824405;77;26357;-39
2022/01/17 12:54:11;;;;;;;7.67;0.20;;;;;;;;;;1823233;77;26291;-37
2022/01/17 12:56:42;;;;;;;0.10;0.10;;;;;;;;;;1831486;77;26837;-33
2022/01/17 12:59:09;;;;;;;0.20;0.20;;;;;;;;;;1828556;77;26293;-39
2022/01/17 13:01:38;;;;;;;0.13;0.13;;;;;;;;;;1823395;77;26280;-34
2022/01/17 13:04:08;;;;;;;0.10;0.10;;;;;;;;;;1822775;77;26768;-37
2022/01/17 13:06:34;;;;;;;0.20;0.20;;;;;;;;;;1834314;77;26288;-34
2022/01/17 13:09:03;;;;;;;0.15;0.15;;;;;;;;;;1797219;78;26319;-33
2022/01/17 13:11:30;;;;;;;0.53;0.20;;;;;;;;;;1804312;78;26284;-34
2022/01/17 13:14:01;;;;;;;0.30;0.30;;;;;;;;;;1791396;78;26311;-33
2022/01/17 13:16:31;;;;;;;0.28;0.28;;;;;;;;;;1794311;78;26298;-34
2022/01/17 13:18:58;;;;;;;0.10;0.10;;;;;;;;;;1815489;78;26300;-34
2022/01/17 13:21:26;;;;;;;0.17;0.17;;;;;;;;;;1795061;78;26284;-35
2022/01/17 13:26:31;;;;;;;0.20;0.20;;;;;;;;;;1819657;77;26369;-36
2022/01/17 13:28:59;;;;;;;0.50;0.30;;;;;;;;;;1800690;78;26252;-33
2022/01/17 13:31:28;;;;;;;0.20;0.20;;;;;;;;;;1786269;78;26273;-31
2022/01/17 13:33:57;;;;;;;0.30;0.30;;;;;;;;;;1807644;78;26331;-42
2022/01/17 13:36:26;;;;;;;0.10;0.10;;;;;;;;;;1810305;78;26752;-33
2022/01/17 13:39:13;;;;;;;0.20;0.20;;;;;;;;;;1793841;78;26296;-34
2022/01/17 13:41:41;;;;;;;0.30;0.30;;;;;;;;;;1801761;78;26217;-37
2022/01/17 13:44:10;;;;;;;0.15;0.15;;;;;;;;;;1797960;78;28824;-36
2022/01/17 13:46:43;;;;;;;0.40;0.17;;;;;;;;;;1794704;78;26290;-37
2022/01/17 13:49:08;;;;;;;1.45;0.25;;;;;;;;;;1815470;78;26385;-36
2022/01/17 13:51:36;;;;;;;0.13;0.13;;;;;;;;;;1801658;78;26279;-35
2022/01/17 13:54:03;;;;;;;0.10;0.10;;;;;;;;;;1801639;78;26297;-35
2022/01/17 13:56:32;;;;;;;0.10;0.10;;;;;;;;;;1817119;78;26276;-35
2022/01/17 13:59:00;;;;;;;0.10;0.10;;;;;;;;;;1802194;78;26323;-33
2022/01/17 14:01:29;;;;;;;0.10;0.10;;;;;;;;;;1798881;78;26342;-33
2022/01/17 14:03:56;;;;;;;0.10;0.10;;;;;;;;;;1806212;78;26320;-38
2022/01/17 14:06:23;;;;;;;0.10;0.10;;;;;;;;;;1804205;78;26303;-36
2022/01/17 14:08:53;;;;;;;0.10;0.10;;;;;;;;;;1804725;78;26736;-36
2022/01/17 14:11:21;;;;;;;0.10;0.10;;;;;;;;;;1807417;78;26241;-34
2022/01/17 14:13:56;;;;;;;0.20;0.20;;;;;;;;;;1810801;79;26265;-33
2022/01/17 14:16:24;;;;;;;0.20;0.20;;;;;;;;;;1784634;79;27547;-33
2022/01/17 14:18:53;;;;;;;0.20;0.20;;;;;;;;;;1847606;76;26706;-32
2022/01/17 14:21:22;;;;;;;0.10;0.10;;;;;;;;;;1845640;76;26273;-32
2022/01/17 14:23:50;;;;;;;0.13;0.13;;;;;;;;;;1848005;76;26304;-33
2022/01/17 14:26:27;;;;;;;0.10;0.10;;;;;;;;;;1855261;76;26699;-38
2022/01/17 14:28:54;;;;;;;0.20;0.20;;;;;;;;;;1853891;76;26317;-35
2022/01/17 14:31:21;;;;;;;1.70;0.25;;;;;;;;;;1843681;76;28615;-35
2022/01/17 14:33:51;;;;;;;0.57;0.10;;;;;;;;;;1852979;76;26260;-35
2022/01/17 14:36:19;;;;;;;0.90;0.30;;;;;;;;;;1854951;76;26368;-37
2022/01/17 14:38:48;;;;;;;0.10;0.10;;;;;;;;;;1864951;76;26297;-34
2022/01/17 14:41:23;;;;;;;0.20;0.20;;;;;;;;;;1840133;76;26330;-35
2022/01/17 14:43:55;;;;;;;0.10;0.10;;;;;;;;;;1843830;76;26273;-37
2022/01/17 14:46:25;;;;;;;0.33;0.33;;;;;;;;;;1841437;76;27638;-36
2022/01/17 14:48:54;;;;;;;0.33;0.30;;;;;;;;;;1864265;76;26243;-36
2022/01/17 14:51:22;;;;;;;1.57;0.30;;;;;;;;;;1851361;75;26839;-36
2022/01/17 14:53:57;;;;;;;0.20;0.20;;;;;;;;;;1870289;76;26341;-35
2022/01/17 15:02:03;;;;;;;0.20;0.20;;;;;;;;;;1845465;76;26332;-35
2022/01/17 15:04:22;;;;;;;0.17;0.17;;;;;;;;;;1868516;76;26251;-35
2022/01/17 15:06:49;;;;;;;0.30;0.17;;;;;;;;;;1844926;76;26272;-36
2022/01/17 15:09:16;;;;;;;0.35;0.30;;;;;;;;;;1843884;76;26320;-35
2022/01/17 15:11:45;;;;;;;0.30;0.30;;;;;;;;;;1840923;76;26334;-35
2022/01/17 15:14:12;;;;;;;0.10;0.10;;;;;;;;;;1843792;76;26304;-36
2022/01/17 15:16:40;;;;;;;0.17;0.17;;;;;;;;;;1845593;76;26678;-35
2022/01/17 15:19:08;;;;;;;0.30;0.30;;;;;;;;;;1869846;76;26325;-36
2022/01/17 15:21:35;;;;;;;0.40;0.10;;;;;;;;;;1856342;76;26697;-35
2022/01/17 15:24:03;;;;;;;0.20;0.20;;;;;;;;;;1850776;75;26249;-35
2022/01/17 15:26:30;;;;;;;0.15;0.15;;;;;;;;;;1843391;76;26288;-35
2022/01/17 15:28:57;;;;;;;0.47;0.30;;;;;;;;;;1831093;76;26296;-35
2022/01/17 15:31:25;;;;;;;0.30;0.30;;;;;;;;;;1848700;76;26551;-35